sensor_id;sensor_type;location;lat;lon;timestamp;temperature;humidity
4209;DHT22;36320;48.860;2.380;2023-03-30T02:39:49;19.90;58.80
4209;DHT22;36320;48.860;2.380;2023-03-30T02:42:48;19.90;59.30
4209;DHT22;36320;48.860;2.380;2023-03-30T02:45:21;19.90;59.30
4209;DHT22;36320;48.860;2.380;2023-03-30T02:48:25;19.90;59.30
4209;DHT22;36320;48.860;2.380;2023-03-30T02:51:38;19.90;59.30
4209;DHT22;36320;48.860;2.380;2023-03-30T02:59:19;19.80;59.20
4209;DHT22;36320;48.860;2.380;2023-03-30T03:01:57;19.80;59.30
4209;DHT22;36320;48.860;2.380;2023-03-30T03:04:26;19.80;59.40
4209;DHT22;36320;48.860;2.380;2023-03-30T03:06:53;19.70;59.20
4209;DHT22;36320;48.860;2.380;2023-03-30T03:09:21;19.70;59.20
4209;DHT22;36320;48.860;2.380;2023-03-30T03:11:50;19.70;59.30
4209;DHT22;36320;48.860;2.380;2023-03-30T03:14:16;19.70;59.40
4209;DHT22;36320;48.860;2.380;2023-03-30T03:16:42;19.70;59.40
4209;DHT22;36320;48.860;2.380;2023-03-30T03:19:08;19.70;59.40
4209;DHT22;36320;48.860;2.380;2023-03-30T03:21:34;19.70;59.50
4209;DHT22;36320;48.860;2.380;2023-03-30T03:24:07;19.60;59.50
4209;DHT22;36320;48.860;2.380;2023-03-30T03:26:33;19.60;59.70
4209;DHT22;36320;48.860;2.380;2023-03-30T03:28:58;19.60;59.70
4209;DHT22;36320;48.860;2.380;2023-03-30T03:31:24;19.60;59.80
4209;DHT22;36320;48.860;2.380;2023-03-30T03:33:51;19.50;59.90
4209;DHT22;36320;48.860;2.380;2023-03-30T03:36:17;19.50;60.00
4209;DHT22;36320;48.860;2.380;2023-03-30T03:38:42;19.50;60.00
4209;DHT22;36320;48.860;2.380;2023-03-30T03:41:09;19.50;60.10
4209;DHT22;36320;48.860;2.380;2023-03-30T03:43:37;19.40;60.20
4209;DHT22;36320;48.860;2.380;2023-03-30T03:46:02;19.40;60.40
4209;DHT22;36320;48.860;2.380;2023-03-30T03:48:28;19.30;60.30
4209;DHT22;36320;48.860;2.380;2023-03-30T03:50:55;19.30;60.50
4209;DHT22;36320;48.860;2.380;2023-03-30T03:53:23;19.30;60.60
4209;DHT22;36320;48.860;2.380;2023-03-30T03:55:49;19.30;60.80
4209;DHT22;36320;48.860;2.380;2023-03-30T03:58:15;19.20;60.80
4209;DHT22;36320;48.860;2.380;2023-03-30T04:00:41;19.30;61.70
4209;DHT22;36320;48.860;2.380;2023-03-30T04:03:07;19.20;61.00
4209;DHT22;36320;48.860;2.380;2023-03-30T04:05:34;19.20;61.80
4209;DHT22;36320;48.860;2.380;2023-03-30T04:07:59;19.20;61.20
4209;DHT22;36320;48.860;2.380;2023-03-30T04:10:26;19.20;61.20
4209;DHT22;36320;48.860;2.380;2023-03-30T04:12:54;19.20;61.30
4209;DHT22;36320;48.860;2.380;2023-03-30T04:15:21;19.20;60.90
4209;DHT22;36320;48.860;2.380;2023-03-30T04:17:47;19.10;61.40
4209;DHT22;36320;48.860;2.380;2023-03-30T04:20:15;19.10;61.50
4209;DHT22;36320;48.860;2.380;2023-03-30T04:22:41;19.10;61.60
4209;DHT22;36320;48.860;2.380;2023-03-30T04:25:08;19.10;61.20
4209;DHT22;36320;48.860;2.380;2023-03-30T04:27:38;19.10;61.80
4209;DHT22;36320;48.860;2.380;2023-03-30T04:30:08;19.20;62.00
4209;DHT22;36320;48.860;2.380;2023-03-30T04:32:33;19.00;61.80
4209;DHT22;36320;48.860;2.380;2023-03-30T04:35:04;19.00;61.80
4209;DHT22;36320;48.860;2.380;2023-03-30T04:37:30;19.00;61.90
4209;DHT22;36320;48.860;2.380;2023-03-30T04:39:59;19.00;61.90
4209;DHT22;36320;48.860;2.380;2023-03-30T04:42:27;19.00;62.00
4209;DHT22;36320;48.860;2.380;2023-03-30T04:45:02;19.00;62.10
4209;DHT22;36320;48.860;2.380;2023-03-30T04:47:29;19.00;62.30
4209;DHT22;36320;48.860;2.380;2023-03-30T04:49:55;18.90;62.30
4209;DHT22;36320;48.860;2.380;2023-03-30T04:52:21;19.00;62.50
4209;DHT22;36320;48.860;2.380;2023-03-30T04:54:47;18.90;62.40
4209;DHT22;36320;48.860;2.380;2023-03-30T04:57:13;18.90;62.50
4209;DHT22;36320;48.860;2.380;2023-03-30T04:59:40;18.90;62.50
4209;DHT22;36320;48.860;2.380;2023-03-30T05:02:06;18.90;62.50
4209;DHT22;36320;48.860;2.380;2023-03-30T05:04:32;18.90;62.60
4209;DHT22;36320;48.860;2.380;2023-03-30T05:06:57;18.90;62.60
4209;DHT22;36320;48.860;2.380;2023-03-30T05:09:23;18.90;62.70
4209;DHT22;36320;48.860;2.380;2023-03-30T05:11:49;18.90;62.70
4209;DHT22;36320;48.860;2.380;2023-03-30T05:14:15;18.90;62.20
4209;DHT22;36320;48.860;2.380;2023-03-30T05:16:41;18.90;62.80
4209;DHT22;36320;48.860;2.380;2023-03-30T05:19:07;18.90;63.10
4209;DHT22;36320;48.860;2.380;2023-03-30T05:21:33;18.80;62.80
4209;DHT22;36320;48.860;2.380;2023-03-30T05:23:59;18.80;63.00
4209;DHT22;36320;48.860;2.380;2023-03-30T05:26:25;18.80;63.00
4209;DHT22;36320;48.860;2.380;2023-03-30T05:28:51;18.70;63.00
4209;DHT22;36320;48.860;2.380;2023-03-30T05:31:17;18.80;63.10
4209;DHT22;36320;48.860;2.380;2023-03-30T05:33:44;18.90;63.30
4209;DHT22;36320;48.860;2.380;2023-03-30T05:36:10;18.90;63.30
4209;DHT22;36320;48.860;2.380;2023-03-30T05:38:36;18.90;63.30
4209;DHT22;36320;48.860;2.380;2023-03-30T05:41:02;19.00;63.40
4209;DHT22;36320;48.860;2.380;2023-03-30T05:43:32;18.90;63.30
4209;DHT22;36320;48.860;2.380;2023-03-30T05:45:58;18.90;63.30
4209;DHT22;36320;48.860;2.380;2023-03-30T05:48:24;18.90;63.30
4209;DHT22;36320;48.860;2.380;2023-03-30T05:50:50;18.90;63.40
4209;DHT22;36320;48.860;2.380;2023-03-30T05:53:15;18.90;63.40
4209;DHT22;36320;48.860;2.380;2023-03-30T05:55:45;18.90;63.30
4209;DHT22;36320;48.860;2.380;2023-03-30T05:58:11;18.90;63.30
4209;DHT22;36320;48.860;2.380;2023-03-30T06:00:38;18.90;63.40
4209;DHT22;36320;48.860;2.380;2023-03-30T06:03:08;18.90;63.40
4209;DHT22;36320;48.860;2.380;2023-03-30T06:05:37;18.80;63.40
4209;DHT22;36320;48.860;2.380;2023-03-30T06:08:04;18.80;63.40
4209;DHT22;36320;48.860;2.380;2023-03-30T06:10:33;18.90;63.60
4209;DHT22;36320;48.860;2.380;2023-03-30T06:12:59;18.80;63.60
4209;DHT22;36320;48.860;2.380;2023-03-30T06:15:24;18.90;63.90
4209;DHT22;36320;48.860;2.380;2023-03-30T06:17:50;18.90;63.80
4209;DHT22;36320;48.860;2.380;2023-03-30T06:20:17;18.80;63.80
4209;DHT22;36320;48.860;2.380;2023-03-30T06:22:46;18.80;63.80
4209;DHT22;36320;48.860;2.380;2023-03-30T06:25:12;18.90;64.00
4209;DHT22;36320;48.860;2.380;2023-03-30T06:27:38;18.90;64.00
4209;DHT22;36320;48.860;2.380;2023-03-30T06:30:04;18.90;64.00
4209;DHT22;36320;48.860;2.380;2023-03-30T06:32:30;18.90;64.10
4209;DHT22;36320;48.860;2.380;2023-03-30T06:34:56;18.90;64.10
4209;DHT22;36320;48.860;2.380;2023-03-30T06:37:22;18.90;64.10
4209;DHT22;36320;48.860;2.380;2023-03-30T06:39:48;18.90;64.10
4209;DHT22;36320;48.860;2.380;2023-03-30T06:42:13;18.90;64.20
4209;DHT22;36320;48.860;2.380;2023-03-30T06:44:39;18.90;64.20
4209;DHT22;36320;48.860;2.380;2023-03-30T06:47:05;18.90;64.20
4209;DHT22;36320;48.860;2.380;2023-03-30T06:49:32;18.90;64.20
4209;DHT22;36320;48.860;2.380;2023-03-30T06:51:57;18.90;64.20
4209;DHT22;36320;48.860;2.380;2023-03-30T06:54:23;18.90;63.60
4209;DHT22;36320;48.860;2.380;2023-03-30T06:56:49;18.90;64.20
4209;DHT22;36320;48.860;2.380;2023-03-30T06:59:15;18.90;63.70
4209;DHT22;36320;48.860;2.380;2023-03-30T07:01:41;18.90;64.30
4209;DHT22;36320;48.860;2.380;2023-03-30T07:04:08;18.90;64.20
4209;DHT22;36320;48.860;2.380;2023-03-30T07:06:34;18.90;64.20
4209;DHT22;36320;48.860;2.380;2023-03-30T07:09:00;18.90;64.30
4209;DHT22;36320;48.860;2.380;2023-03-30T07:13:53;19.00;63.80
4209;DHT22;36320;48.860;2.380;2023-03-30T07:16:23;19.00;63.80
4209;DHT22;36320;48.860;2.380;2023-03-30T07:21:15;19.00;63.70
4209;DHT22;36320;48.860;2.380;2023-03-30T07:23:41;19.00;64.40
4209;DHT22;36320;48.860;2.380;2023-03-30T07:26:08;19.00;64.40
4209;DHT22;36320;48.860;2.380;2023-03-30T07:28:34;19.00;64.30
4209;DHT22;36320;48.860;2.380;2023-03-30T07:31:09;19.00;64.40
4209;DHT22;36320;48.860;2.380;2023-03-30T07:33:38;19.00;64.40
4209;DHT22;36320;48.860;2.380;2023-03-30T07:36:05;19.00;64.40
4209;DHT22;36320;48.860;2.380;2023-03-30T07:38:32;19.10;64.40
4209;DHT22;36320;48.860;2.380;2023-03-30T07:40:58;19.10;64.30
4209;DHT22;36320;48.860;2.380;2023-03-30T07:43:24;19.10;64.20
4209;DHT22;36320;48.860;2.380;2023-03-30T07:45:51;19.10;64.20
4209;DHT22;36320;48.860;2.380;2023-03-30T07:48:17;19.20;63.50
4209;DHT22;36320;48.860;2.380;2023-03-30T07:50:42;19.10;63.40
4209;DHT22;36320;48.860;2.380;2023-03-30T07:53:08;19.20;63.40
4209;DHT22;36320;48.860;2.380;2023-03-30T07:55:34;19.20;63.30
4209;DHT22;36320;48.860;2.380;2023-03-30T07:58:00;19.20;63.30
4209;DHT22;36320;48.860;2.380;2023-03-30T08:00:26;19.20;63.80
4209;DHT22;36320;48.860;2.380;2023-03-30T08:02:52;19.20;63.70
4209;DHT22;36320;48.860;2.380;2023-03-30T08:05:17;19.30;63.00
4209;DHT22;36320;48.860;2.380;2023-03-30T08:07:43;19.20;62.90
4209;DHT22;36320;48.860;2.380;2023-03-30T08:10:10;19.30;63.50
4209;DHT22;36320;48.860;2.380;2023-03-30T08:12:36;19.30;63.40
4209;DHT22;36320;48.860;2.380;2023-03-30T08:15:02;19.30;63.30
4209;DHT22;36320;48.860;2.380;2023-03-30T08:17:28;19.30;63.20
4209;DHT22;36320;48.860;2.380;2023-03-30T08:19:55;19.30;63.00
4209;DHT22;36320;48.860;2.380;2023-03-30T08:22:22;19.30;62.90
4209;DHT22;36320;48.860;2.380;2023-03-30T08:24:47;19.30;62.80
4209;DHT22;36320;48.860;2.380;2023-03-30T08:27:13;19.30;62.70
4209;DHT22;36320;48.860;2.380;2023-03-30T08:29:39;19.40;62.80
4209;DHT22;36320;48.860;2.380;2023-03-30T08:32:06;19.40;62.70
4209;DHT22;36320;48.860;2.380;2023-03-30T08:34:32;19.40;62.60
4209;DHT22;36320;48.860;2.380;2023-03-30T08:36:58;19.40;62.40
4209;DHT22;36320;48.860;2.380;2023-03-30T08:39:24;19.50;62.40
4209;DHT22;36320;48.860;2.380;2023-03-30T08:44:36;19.50;62.10
4209;DHT22;36320;48.860;2.380;2023-03-30T08:47:10;19.50;62.20
4209;DHT22;36320;48.860;2.380;2023-03-30T08:49:53;19.50;62.10
4209;DHT22;36320;48.860;2.380;2023-03-30T08:52:23;19.50;62.10
4209;DHT22;36320;48.860;2.380;2023-03-30T08:54:50;19.20;62.50
4209;DHT22;36320;48.860;2.380;2023-03-30T08:57:30;19.60;62.10
4209;DHT22;36320;48.860;2.380;2023-03-30T09:00:15;19.60;62.10
4209;DHT22;36320;48.860;2.380;2023-03-30T09:02:48;21.20;63.70
4209;DHT22;36320;48.860;2.380;2023-03-30T09:05:20;19.40;61.70
4209;DHT22;36320;48.860;2.380;2023-03-30T09:10:46;19.60;61.90
4209;DHT22;36320;48.860;2.380;2023-03-30T09:13:18;19.60;61.90
4209;DHT22;36320;48.860;2.380;2023-03-30T09:15:50;19.60;61.90
4209;DHT22;36320;48.860;2.380;2023-03-30T09:18:33;19.60;61.80
4209;DHT22;36320;48.860;2.380;2023-03-30T09:21:02;19.70;62.00
4209;DHT22;36320;48.860;2.380;2023-03-30T09:23:29;19.70;62.00
4209;DHT22;36320;48.860;2.380;2023-03-30T09:28:26;19.80;61.90
4209;DHT22;36320;48.860;2.380;2023-03-30T09:31:06;19.80;61.90
4209;DHT22;36320;48.860;2.380;2023-03-30T09:33:43;19.80;61.90
4209;DHT22;36320;48.860;2.380;2023-03-30T09:36:25;19.80;61.70
4209;DHT22;36320;48.860;2.380;2023-03-30T09:38:51;19.90;61.90
4209;DHT22;36320;48.860;2.380;2023-03-30T09:41:49;21.00;62.90
4209;DHT22;36320;48.860;2.380;2023-03-30T09:44:29;19.90;61.90
4209;DHT22;36320;48.860;2.380;2023-03-30T09:46:58;20.00;61.70
4209;DHT22;36320;48.860;2.380;2023-03-30T09:49:28;20.00;61.50
4209;DHT22;36320;48.860;2.380;2023-03-30T09:52:05;20.00;61.40
4209;DHT22;36320;48.860;2.380;2023-03-30T09:54:37;20.10;61.50
4209;DHT22;36320;48.860;2.380;2023-03-30T09:57:03;20.10;61.60
4209;DHT22;36320;48.860;2.380;2023-03-30T09:59:34;20.10;61.40
4209;DHT22;36320;48.860;2.380;2023-03-30T10:04:55;20.20;61.30
4209;DHT22;36320;48.860;2.380;2023-03-30T10:07:40;20.20;60.90
4209;DHT22;36320;48.860;2.380;2023-03-30T10:12:39;20.20;60.60
4209;DHT22;36320;48.860;2.380;2023-03-30T10:15:06;20.20;60.60
4209;DHT22;36320;48.860;2.380;2023-03-30T10:17:39;20.20;60.60
4209;DHT22;36320;48.860;2.380;2023-03-30T10:20:34;20.20;60.60
4209;DHT22;36320;48.860;2.380;2023-03-30T10:23:15;20.20;60.40
4209;DHT22;36320;48.860;2.380;2023-03-30T10:25:44;20.30;60.20
4209;DHT22;36320;48.860;2.380;2023-03-30T10:28:34;19.40;59.40
4209;DHT22;36320;48.860;2.380;2023-03-30T10:31:04;20.30;59.90
4209;DHT22;36320;48.860;2.380;2023-03-30T10:33:38;20.30;59.60
4209;DHT22;36320;48.860;2.380;2023-03-30T10:36:05;20.20;59.10
4209;DHT22;36320;48.860;2.380;2023-03-30T10:38:32;20.10;59.30
4209;DHT22;36320;48.860;2.380;2023-03-30T10:41:08;20.30;59.10
4209;DHT22;36320;48.860;2.380;2023-03-30T10:43:38;19.90;58.60
4209;DHT22;36320;48.860;2.380;2023-03-30T10:46:17;19.70;59.10
4209;DHT22;36320;48.860;2.380;2023-03-30T10:51:38;19.80;59.50
4209;DHT22;36320;48.860;2.380;2023-03-30T10:54:35;19.90;59.20
4209;DHT22;36320;48.860;2.380;2023-03-30T10:57:16;19.90;59.00
4209;DHT22;36320;48.860;2.380;2023-03-30T11:06:27;19.90;59.10
4209;DHT22;36320;48.860;2.380;2023-03-30T11:08:59;20.20;58.50
4209;DHT22;36320;48.860;2.380;2023-03-30T11:11:54;20.50;58.00
4209;DHT22;36320;48.860;2.380;2023-03-30T11:14:26;20.70;57.10
4209;DHT22;36320;48.860;2.380;2023-03-30T11:16:58;20.50;57.20
4209;DHT22;36320;48.860;2.380;2023-03-30T11:19:41;20.30;57.10
4209;DHT22;36320;48.860;2.380;2023-03-30T11:25:20;20.10;57.60
4209;DHT22;36320;48.860;2.380;2023-03-30T11:27:56;20.50;57.30
4209;DHT22;36320;48.860;2.380;2023-03-30T11:30:31;20.90;56.10
4209;DHT22;36320;48.860;2.380;2023-03-30T11:33:05;21.00;55.70
4209;DHT22;36320;48.860;2.380;2023-03-30T11:35:40;21.30;55.30
4209;DHT22;36320;48.860;2.380;2023-03-30T11:38:18;21.70;54.60
4209;DHT22;36320;48.860;2.380;2023-03-30T11:40:47;21.40;54.10
4209;DHT22;36320;48.860;2.380;2023-03-30T11:43:15;20.90;53.60
4209;DHT22;36320;48.860;2.380;2023-03-30T11:45:54;20.80;54.10
4209;DHT22;36320;48.860;2.380;2023-03-30T11:58:47;20.00;56.20
4209;DHT22;36320;48.860;2.380;2023-03-30T12:01:29;19.80;56.90
4209;DHT22;36320;48.860;2.380;2023-03-30T12:04:10;19.80;57.40
4209;DHT22;36320;48.860;2.380;2023-03-30T12:06:40;20.30;57.80
4209;DHT22;36320;48.860;2.380;2023-03-30T12:09:49;20.40;57.50
4209;DHT22;36320;48.860;2.380;2023-03-30T12:12:39;20.60;56.90
4209;DHT22;36320;48.860;2.380;2023-03-30T12:15:11;20.90;56.60
4209;DHT22;36320;48.860;2.380;2023-03-30T12:18:17;21.00;56.60
4209;DHT22;36320;48.860;2.380;2023-03-30T12:23:48;20.70;56.90
4209;DHT22;36320;48.860;2.380;2023-03-30T12:26:32;20.50;57.40
4209;DHT22;36320;48.860;2.380;2023-03-30T12:29:14;20.40;57.80
4209;DHT22;36320;48.860;2.380;2023-03-30T12:34:30;20.30;57.90
4209;DHT22;36320;48.860;2.380;2023-03-30T12:37:11;20.30;58.20
4209;DHT22;36320;48.860;2.380;2023-03-30T12:39:55;20.50;58.40
4209;DHT22;36320;48.860;2.380;2023-03-30T12:42:29;20.60;57.90
4209;DHT22;36320;48.860;2.380;2023-03-30T12:45:18;20.40;58.00
4209;DHT22;36320;48.860;2.380;2023-03-30T12:53:20;21.00;57.40
4209;DHT22;36320;48.860;2.380;2023-03-30T13:03:58;21.30;56.60
4209;DHT22;36320;48.860;2.380;2023-03-30T13:06:38;21.10;56.60
4209;DHT22;36320;48.860;2.380;2023-03-30T13:14:38;21.30;57.20
4209;DHT22;36320;48.860;2.380;2023-03-30T13:17:14;21.20;57.20
4209;DHT22;36320;48.860;2.380;2023-03-30T13:20:09;21.10;57.70
4209;DHT22;36320;48.860;2.380;2023-03-30T13:22:37;21.40;58.20
4209;DHT22;36320;48.860;2.380;2023-03-30T13:31:32;21.10;58.30
4209;DHT22;36320;48.860;2.380;2023-03-30T13:36:55;20.70;58.80
4209;DHT22;36320;48.860;2.380;2023-03-30T13:39:35;21.20;58.60
4209;DHT22;36320;48.860;2.380;2023-03-30T13:48:12;21.50;56.80
4209;DHT22;36320;48.860;2.380;2023-03-30T13:50:45;21.30;57.20
4209;DHT22;36320;48.860;2.380;2023-03-30T13:53:14;21.10;57.20
4209;DHT22;36320;48.860;2.380;2023-03-30T13:55:43;21.30;57.40
4209;DHT22;36320;48.860;2.380;2023-03-30T13:58:20;21.30;56.90
4209;DHT22;36320;48.860;2.380;2023-03-30T14:00:54;21.20;58.00
4209;DHT22;36320;48.860;2.380;2023-03-30T14:03:34;21.20;57.10
4209;DHT22;36320;48.860;2.380;2023-03-30T14:08:39;21.10;57.00
4209;DHT22;36320;48.860;2.380;2023-03-30T14:11:32;21.30;57.00
4209;DHT22;36320;48.860;2.380;2023-03-30T14:13:57;21.60;56.10
4209;DHT22;36320;48.860;2.380;2023-03-30T14:16:25;21.70;55.40
4209;DHT22;36320;48.860;2.380;2023-03-30T14:19:02;21.50;55.10
4209;DHT22;36320;48.860;2.380;2023-03-30T14:21:30;21.60;55.40
4209;DHT22;36320;48.860;2.380;2023-03-30T14:23:56;21.40;55.40
4209;DHT22;36320;48.860;2.380;2023-03-30T14:26:28;21.70;55.30
4209;DHT22;36320;48.860;2.380;2023-03-30T14:28:58;22.20;54.60
4209;DHT22;36320;48.860;2.380;2023-03-30T14:31:27;21.70;54.30
4209;DHT22;36320;48.860;2.380;2023-03-30T14:33:52;21.30;54.50
4209;DHT22;36320;48.860;2.380;2023-03-30T14:36:20;20.90;55.40
4209;DHT22;36320;48.860;2.380;2023-03-30T14:38:51;20.90;55.80
4209;DHT22;36320;48.860;2.380;2023-03-30T14:41:27;21.00;55.90
4209;DHT22;36320;48.860;2.380;2023-03-30T14:44:02;21.40;55.90
4209;DHT22;36320;48.860;2.380;2023-03-30T14:46:43;21.60;55.30
4209;DHT22;36320;48.860;2.380;2023-03-30T14:51:42;21.00;55.70
4209;DHT22;36320;48.860;2.380;2023-03-30T14:54:14;20.80;56.40
4209;DHT22;36320;48.860;2.380;2023-03-30T14:56:54;20.60;56.80
4209;DHT22;36320;48.860;2.380;2023-03-30T14:59:23;20.30;57.20
4209;DHT22;36320;48.860;2.380;2023-03-30T15:01:50;20.10;58.00
4209;DHT22;36320;48.860;2.380;2023-03-30T15:04:17;19.80;60.60
4209;DHT22;36320;48.860;2.380;2023-03-30T15:06:45;19.90;63.50
4209;DHT22;36320;48.860;2.380;2023-03-30T15:09:19;20.30;65.10
4209;DHT22;36320;48.860;2.380;2023-03-30T15:11:50;21.00;66.10
4209;DHT22;36320;48.860;2.380;2023-03-30T15:14:19;21.40;66.00
4209;DHT22;36320;48.860;2.380;2023-03-30T15:16:48;21.10;66.20
4209;DHT22;36320;48.860;2.380;2023-03-30T15:19:30;20.50;68.00
4209;DHT22;36320;48.860;2.380;2023-03-30T15:22:02;20.20;69.10
4209;DHT22;36320;48.860;2.380;2023-03-30T15:24:34;20.20;69.20
4209;DHT22;36320;48.860;2.380;2023-03-30T15:27:05;20.20;68.70
4209;DHT22;36320;48.860;2.380;2023-03-30T15:29:32;20.50;68.50
4209;DHT22;36320;48.860;2.380;2023-03-30T15:37:26;20.60;66.40
4209;DHT22;36320;48.860;2.380;2023-03-30T15:39:52;20.50;66.10
4209;DHT22;36320;48.860;2.380;2023-03-30T15:42:32;20.80;65.90
4209;DHT22;36320;48.860;2.380;2023-03-30T15:45:24;20.80;64.60
4209;DHT22;36320;48.860;2.380;2023-03-30T15:48:10;20.70;64.50
4209;DHT22;36320;48.860;2.380;2023-03-30T15:50:36;21.10;63.80
4209;DHT22;36320;48.860;2.380;2023-03-30T15:53:02;21.60;61.70
4209;DHT22;36320;48.860;2.380;2023-03-30T15:55:29;21.60;59.60
4209;DHT22;36320;48.860;2.380;2023-03-30T15:58:01;21.30;58.50
4209;DHT22;36320;48.860;2.380;2023-03-30T16:00:30;20.90;58.20
4209;DHT22;36320;48.860;2.380;2023-03-30T16:02:59;21.00;58.50
4209;DHT22;36320;48.860;2.380;2023-03-30T16:05:33;21.00;57.70
4209;DHT22;36320;48.860;2.380;2023-03-30T16:07:59;20.60;57.30
4209;DHT22;36320;48.860;2.380;2023-03-30T16:10:28;20.70;57.40
4209;DHT22;36320;48.860;2.380;2023-03-30T16:12:58;21.20;57.30
4209;DHT22;36320;48.860;2.380;2023-03-30T16:15:29;21.30;56.30
4209;DHT22;36320;48.860;2.380;2023-03-30T16:17:55;21.00;56.60
4209;DHT22;36320;48.860;2.380;2023-03-30T16:20:27;20.60;56.90
4209;DHT22;36320;48.860;2.380;2023-03-30T16:22:53;20.40;57.30
4209;DHT22;36320;48.860;2.380;2023-03-30T16:25:21;20.30;57.80
4209;DHT22;36320;48.860;2.380;2023-03-30T16:27:47;20.50;58.40
4209;DHT22;36320;48.860;2.380;2023-03-30T16:30:18;20.90;58.00
4209;DHT22;36320;48.860;2.380;2023-03-30T16:32:45;21.00;57.80
4209;DHT22;36320;48.860;2.380;2023-03-30T16:35:11;20.90;58.00
4209;DHT22;36320;48.860;2.380;2023-03-30T16:37:37;20.50;58.40
4209;DHT22;36320;48.860;2.380;2023-03-30T16:40:38;20.30;58.60
4209;DHT22;36320;48.860;2.380;2023-03-30T16:43:04;20.10;59.30
4209;DHT22;36320;48.860;2.380;2023-03-30T16:45:31;20.20;59.50
4209;DHT22;36320;48.860;2.380;2023-03-30T16:48:01;20.20;59.80
4209;DHT22;36320;48.860;2.380;2023-03-30T16:52:56;20.20;60.00
4209;DHT22;36320;48.860;2.380;2023-03-30T16:55:22;20.20;60.10
4209;DHT22;36320;48.860;2.380;2023-03-30T16:57:51;20.30;60.30
4209;DHT22;36320;48.860;2.380;2023-03-30T17:00:22;20.00;60.60
4209;DHT22;36320;48.860;2.380;2023-03-30T17:02:49;19.90;61.10
4209;DHT22;36320;48.860;2.380;2023-03-30T17:05:16;19.80;61.70
4209;DHT22;36320;48.860;2.380;2023-03-30T17:07:43;19.80;62.10
4209;DHT22;36320;48.860;2.380;2023-03-30T17:10:31;19.80;61.90
4209;DHT22;36320;48.860;2.380;2023-03-30T17:12:58;19.80;62.20
4209;DHT22;36320;48.860;2.380;2023-03-30T17:15:25;19.80;62.30
4209;DHT22;36320;48.860;2.380;2023-03-30T17:17:52;19.60;62.90
4209;DHT22;36320;48.860;2.380;2023-03-30T17:22:49;19.30;63.70
4209;DHT22;36320;48.860;2.380;2023-03-30T17:25:15;19.40;64.00
4209;DHT22;36320;48.860;2.380;2023-03-30T17:27:47;19.40;63.90
4209;DHT22;36320;48.860;2.380;2023-03-30T17:30:28;19.40;63.80
4209;DHT22;36320;48.860;2.380;2023-03-30T17:32:54;19.40;63.80
4209;DHT22;36320;48.860;2.380;2023-03-30T17:35:22;19.40;63.80
4209;DHT22;36320;48.860;2.380;2023-03-30T17:37:48;19.50;63.90
4209;DHT22;36320;48.860;2.380;2023-03-30T17:40:16;19.50;63.90
4209;DHT22;36320;48.860;2.380;2023-03-30T17:42:43;19.60;63.70
4209;DHT22;36320;48.860;2.380;2023-03-30T17:45:09;19.50;63.70
4209;DHT22;36320;48.860;2.380;2023-03-30T17:47:35;19.40;64.00
4209;DHT22;36320;48.860;2.380;2023-03-30T17:50:02;19.20;64.00
4209;DHT22;36320;48.860;2.380;2023-03-30T17:52:35;19.10;64.30
4209;DHT22;36320;48.860;2.380;2023-03-30T17:55:01;19.00;64.40
4209;DHT22;36320;48.860;2.380;2023-03-30T17:57:27;18.90;64.40
4209;DHT22;36320;48.860;2.380;2023-03-30T17:59:53;19.00;64.50
4209;DHT22;36320;48.860;2.380;2023-03-30T18:02:22;19.00;64.50
4209;DHT22;36320;48.860;2.380;2023-03-30T18:04:47;18.60;64.10
4209;DHT22;36320;48.860;2.380;2023-03-30T18:07:15;18.80;64.60
4209;DHT22;36320;48.860;2.380;2023-03-30T18:09:40;18.70;64.50
4209;DHT22;36320;48.860;2.380;2023-03-30T18:12:06;18.70;64.70
4209;DHT22;36320;48.860;2.380;2023-03-30T18:14:32;18.50;64.80
4209;DHT22;36320;48.860;2.380;2023-03-30T18:16:58;18.60;64.70
4209;DHT22;36320;48.860;2.380;2023-03-30T18:19:25;18.70;64.70
4209;DHT22;36320;48.860;2.380;2023-03-30T18:21:50;18.60;64.70
4209;DHT22;36320;48.860;2.380;2023-03-30T18:24:16;18.60;64.60
4209;DHT22;36320;48.860;2.380;2023-03-30T18:26:43;18.70;64.30
4209;DHT22;36320;48.860;2.380;2023-03-30T18:29:17;18.60;64.20
4209;DHT22;36320;48.860;2.380;2023-03-30T18:31:47;18.50;64.30
4209;DHT22;36320;48.860;2.380;2023-03-30T18:34:13;18.50;64.40
4209;DHT22;36320;48.860;2.380;2023-03-30T18:36:40;18.50;64.50
4209;DHT22;36320;48.860;2.380;2023-03-30T18:39:10;18.40;64.50
4209;DHT22;36320;48.860;2.380;2023-03-30T18:41:40;18.40;64.60
4209;DHT22;36320;48.860;2.380;2023-03-30T18:44:06;18.40;64.60
4209;DHT22;36320;48.860;2.380;2023-03-30T18:46:33;18.50;64.60
4209;DHT22;36320;48.860;2.380;2023-03-30T18:48:59;18.30;64.40
4209;DHT22;36320;48.860;2.380;2023-03-30T18:51:24;18.30;64.40
4209;DHT22;36320;48.860;2.380;2023-03-30T18:53:50;18.30;64.40
4209;DHT22;36320;48.860;2.380;2023-03-30T18:56:16;18.20;64.30
4209;DHT22;36320;48.860;2.380;2023-03-30T18:58:42;18.20;64.40
4209;DHT22;36320;48.860;2.380;2023-03-30T19:01:08;18.20;64.30
4209;DHT22;36320;48.860;2.380;2023-03-30T19:03:34;18.10;64.20
4209;DHT22;36320;48.860;2.380;2023-03-30T19:06:00;18.20;64.20
4209;DHT22;36320;48.860;2.380;2023-03-30T19:08:25;18.20;63.90
4209;DHT22;36320;48.860;2.380;2023-03-30T19:10:53;18.30;63.80
4209;DHT22;36320;48.860;2.380;2023-03-30T19:13:20;18.20;63.70
4209;DHT22;36320;48.860;2.380;2023-03-30T19:15:47;18.20;63.70
4209;DHT22;36320;48.860;2.380;2023-03-30T19:18:13;18.10;63.50
4209;DHT22;36320;48.860;2.380;2023-03-30T19:20:40;18.00;63.60
4209;DHT22;36320;48.860;2.380;2023-03-30T19:23:09;18.00;63.50
4209;DHT22;36320;48.860;2.380;2023-03-30T19:25:37;18.00;63.60
4209;DHT22;36320;48.860;2.380;2023-03-30T19:28:04;18.00;63.60
4209;DHT22;36320;48.860;2.380;2023-03-30T19:30:31;18.00;63.40
4209;DHT22;36320;48.860;2.380;2023-03-30T19:32:59;18.00;63.50
4209;DHT22;36320;48.860;2.380;2023-03-30T19:35:27;18.00;63.40
4209;DHT22;36320;48.860;2.380;2023-03-30T19:37:53;18.00;63.60
4209;DHT22;36320;48.860;2.380;2023-03-30T19:40:20;18.10;63.60
4209;DHT22;36320;48.860;2.380;2023-03-30T19:42:46;18.10;63.50
4209;DHT22;36320;48.860;2.380;2023-03-30T19:45:14;18.10;63.60
4209;DHT22;36320;48.860;2.380;2023-03-30T19:47:40;18.10;63.70
4209;DHT22;36320;48.860;2.380;2023-03-30T19:50:10;18.10;63.70
4209;DHT22;36320;48.860;2.380;2023-03-30T19:52:37;18.00;64.00
4209;DHT22;36320;48.860;2.380;2023-03-30T19:55:04;17.90;64.20
4209;DHT22;36320;48.860;2.380;2023-03-30T19:57:31;17.90;64.60
4209;DHT22;36320;48.860;2.380;2023-03-30T20:00:00;17.90;64.80
4209;DHT22;36320;48.860;2.380;2023-03-30T20:02:25;18.00;64.90
4209;DHT22;36320;48.860;2.380;2023-03-30T20:04:52;17.90;65.00
4209;DHT22;36320;48.860;2.380;2023-03-30T20:07:18;17.80;65.30
4209;DHT22;36320;48.860;2.380;2023-03-30T20:09:44;17.80;65.40
4209;DHT22;36320;48.860;2.380;2023-03-30T20:12:09;18.00;65.60
4209;DHT22;36320;48.860;2.380;2023-03-30T20:14:37;18.00;65.50
4209;DHT22;36320;48.860;2.380;2023-03-30T20:17:03;17.90;66.50
4209;DHT22;36320;48.860;2.380;2023-03-30T20:19:31;17.80;66.30
4209;DHT22;36320;48.860;2.380;2023-03-30T20:21:57;17.80;66.80
4209;DHT22;36320;48.860;2.380;2023-03-30T20:24:24;17.80;67.20